Time;durP1;ratioP1;P1;durP2;ratioP2;P2;SDS_P1;SDS_P2;PMS_P1;PMS_P2;Temp;Humidity;BMP_temperature;BMP_pressure;BME280_temperature;BME280_humidity;BME280_pressure;Samples;Min_cycle;Max_cycle;Signal;HPM_P1;HPM_P2
2023/09/02 00:01:43;;;;;;;3.27;3.07;;;;;;;;;;5072469;28;20177;-83
2023/09/02 00:04:09;;;;;;;3.10;2.90;;;;;;;;;;5073403;28;20188;-83
2023/09/02 00:06:35;;;;;;;3.20;2.83;;;;;;;;;;5073479;28;20238;-83
2023/09/02 00:09:02;;;;;;;2.50;2.40;;;;;;;;;;5075242;28;20229;-83
2023/09/02 00:11:28;;;;;;;2.70;2.50;;;;;;;;;;5076121;28;20617;-83
2023/09/02 00:13:54;;;;;;;2.97;2.73;;;;;;;;;;5076779;28;20647;-84
2023/09/02 00:16:20;;;;;;;2.80;2.60;;;;;;;;;;5074121;28;20796;-83
2023/09/02 00:18:46;;;;;;;2.63;2.43;;;;;;;;;;5076395;28;20246;-83
2023/09/02 00:21:12;;;;;;;2.77;2.57;;;;;;;;;;5068428;28;20177;-84
2023/09/02 00:23:45;;;;;;;2.63;2.43;;;;;;;;;;5057461;28;20184;-83
2023/09/02 00:26:11;;;;;;;2.80;2.60;;;;;;;;;;5073735;28;20330;-83
2023/09/02 00:28:37;;;;;;;2.53;2.33;;;;;;;;;;5075188;28;20227;-83
2023/09/02 00:31:03;;;;;;;2.87;2.67;;;;;;;;;;5092993;28;20620;-83
2023/09/02 00:33:29;;;;;;;2.50;2.30;;;;;;;;;;5096782;28;20151;-84
2023/09/02 00:35:55;;;;;;;2.70;2.50;;;;;;;;;;5076904;28;20693;-84
2023/09/02 00:38:21;;;;;;;2.30;2.10;;;;;;;;;;5074887;28;20191;-83
2023/09/02 00:40:55;;;;;;;2.27;2.17;;;;;;;;;;5070459;28;20575;-83
2023/09/02 00:43:21;;;;;;;2.30;2.20;;;;;;;;;;5076330;28;20176;-83
2023/09/02 00:45:47;;;;;;;3.00;2.40;;;;;;;;;;5075358;28;20176;-82
2023/09/02 00:48:13;;;;;;;2.50;2.30;;;;;;;;;;5075572;28;20539;-83
2023/09/02 00:50:40;;;;;;;2.67;2.47;;;;;;;;;;5074460;28;20269;-83
2023/09/02 00:53:06;;;;;;;2.67;2.47;;;;;;;;;;5076891;28;20172;-83
2023/09/02 00:55:32;;;;;;;2.70;2.30;;;;;;;;;;5073180;28;20192;-83
2023/09/02 00:57:59;;;;;;;2.63;2.47;;;;;;;;;;5075161;28;20203;-83
2023/09/02 01:00:25;;;;;;;2.40;2.20;;;;;;;;;;5073397;28;20191;-83
2023/09/02 01:02:52;;;;;;;2.70;2.50;;;;;;;;;;5073498;28;20241;-83
2023/09/02 01:05:20;;;;;;;2.80;2.60;;;;;;;;;;5074862;28;20745;-80
2023/09/02 01:07:46;;;;;;;3.10;2.80;;;;;;;;;;5071408;28;20188;-80
2023/09/02 01:10:12;;;;;;;2.50;2.30;;;;;;;;;;5071529;28;20211;-79
2023/09/02 01:12:38;;;;;;;2.10;2.00;;;;;;;;;;5074020;28;20202;-79
2023/09/02 01:15:04;;;;;;;2.60;2.40;;;;;;;;;;5072864;28;20584;-79
2023/09/02 01:17:31;;;;;;;2.43;2.23;;;;;;;;;;5071907;28;20655;-80
2023/09/02 01:19:58;;;;;;;2.50;2.30;;;;;;;;;;5070754;28;20274;-82
2023/09/02 01:22:38;;;;;;;2.20;2.10;;;;;;;;;;5072307;28;20360;-79
2023/09/02 01:25:04;;;;;;;2.20;2.10;;;;;;;;;;5072060;28;20307;-80
2023/09/02 01:27:34;;;;;;;2.50;2.30;;;;;;;;;;5072602;28;20202;-80
2023/09/02 01:30:07;;;;;;;2.47;2.30;;;;;;;;;;5070807;28;20614;-81
2023/09/02 01:32:34;;;;;;;2.37;2.27;;;;;;;;;;5055724;28;20272;-79
2023/09/02 01:35:04;;;;;;;2.60;2.40;;;;;;;;;;5072896;28;20176;-84
2023/09/02 01:37:33;;;;;;;2.43;2.23;;;;;;;;;;5074357;28;20165;-85
2023/09/02 01:40:00;;;;;;;2.70;2.50;;;;;;;;;;5073010;28;20204;-84
2023/09/02 01:42:26;;;;;;;2.43;2.23;;;;;;;;;;5074112;28;20535;-84
2023/09/02 01:44:53;;;;;;;2.63;2.47;;;;;;;;;;5074674;28;20169;-84
2023/09/02 01:47:19;;;;;;;2.30;2.10;;;;;;;;;;5080673;28;20252;-84
2023/09/02 01:49:47;;;;;;;2.10;2.00;;;;;;;;;;5084711;28;20214;-84
2023/09/02 01:52:14;;;;;;;2.10;2.00;;;;;;;;;;5071185;28;20172;-83
2023/09/02 01:54:40;;;;;;;2.30;2.10;;;;;;;;;;5073487;28;20172;-84
2023/09/02 01:57:06;;;;;;;1.90;1.80;;;;;;;;;;5074751;28;20177;-83
2023/09/02 01:59:32;;;;;;;2.10;1.90;;;;;;;;;;5071484;28;20173;-83
2023/09/02 02:01:58;;;;;;;2.20;2.10;;;;;;;;;;5072448;28;20237;-83
2023/09/02 02:04:27;;;;;;;2.03;1.93;;;;;;;;;;5074190;28;20179;-84
2023/09/02 02:06:56;;;;;;;2.20;2.10;;;;;;;;;;5074226;28;20224;-83
2023/09/02 02:09:42;;;;;;;2.10;1.97;;;;;;;;;;5073295;28;20217;-84
2023/09/02 02:12:09;;;;;;;2.00;1.87;;;;;;;;;;5073301;28;20288;-83
2023/09/02 02:14:35;;;;;;;2.40;2.20;;;;;;;;;;5074823;28;20169;-82
2023/09/02 02:17:03;;;;;;;1.97;1.87;;;;;;;;;;5071137;28;20170;-82
2023/09/02 02:19:29;;;;;;;2.63;2.43;;;;;;;;;;5072410;28;20237;-82
2023/09/02 02:21:55;;;;;;;2.27;2.10;;;;;;;;;;5070970;28;20735;-82
2023/09/02 02:24:21;;;;;;;2.10;1.90;;;;;;;;;;5072341;28;20182;-82
2023/09/02 02:26:47;;;;;;;2.47;2.10;;;;;;;;;;5071739;28;20178;-82
2023/09/02 02:29:13;;;;;;;2.10;1.90;;;;;;;;;;5073078;28;20380;-83
2023/09/02 02:31:40;;;;;;;3.50;2.00;;;;;;;;;;5070834;28;20174;-83
2023/09/02 02:34:06;;;;;;;2.10;2.00;;;;;;;;;;5073007;28;20193;-82
2023/09/02 02:36:32;;;;;;;2.00;1.90;;;;;;;;;;5071245;28;20205;-82
2023/09/02 02:38:58;;;;;;;2.00;1.90;;;;;;;;;;5069928;28;20188;-82
2023/09/02 02:41:24;;;;;;;2.00;1.90;;;;;;;;;;5069921;28;20200;-82
2023/09/02 02:43:50;;;;;;;2.00;1.90;;;;;;;;;;5073380;28;20182;-82
2023/09/02 02:46:16;;;;;;;2.03;1.93;;;;;;;;;;5063614;28;20675;-84
2023/09/02 02:48:42;;;;;;;1.90;1.80;;;;;;;;;;5074162;28;20209;-84
2023/09/02 02:51:09;;;;;;;2.10;1.90;;;;;;;;;;5073139;28;20280;-84
2023/09/02 02:53:36;;;;;;;2.13;2.00;;;;;;;;;;5073749;28;20192;-83
2023/09/02 02:56:02;;;;;;;1.93;1.83;;;;;;;;;;5070326;28;20178;-84
2023/09/02 02:58:29;;;;;;;2.20;2.00;;;;;;;;;;5072561;28;20500;-83
2023/09/02 03:01:06;;;;;;;2.20;2.10;;;;;;;;;;5074997;28;20177;-83
2023/09/02 03:03:32;;;;;;;1.97;1.87;;;;;;;;;;5074389;28;20184;-83
2023/09/02 03:05:59;;;;;;;2.10;2.00;;;;;;;;;;5074089;28;20692;-83
2023/09/02 03:08:25;;;;;;;2.10;1.90;;;;;;;;;;5073259;28;20649;-83
2023/09/02 03:11:02;;;;;;;2.00;1.90;;;;;;;;;;5072021;28;20192;-82
2023/09/02 03:13:33;;;;;;;1.97;1.80;;;;;;;;;;5075063;28;20179;-83
2023/09/02 03:16:00;;;;;;;2.20;2.10;;;;;;;;;;5078095;28;20614;-82
2023/09/02 03:18:26;;;;;;;2.13;2.03;;;;;;;;;;5078230;28;20571;-84
2023/09/02 03:20:52;;;;;;;1.83;1.73;;;;;;;;;;5072570;28;20540;-83
2023/09/02 03:23:19;;;;;;;2.30;2.10;;;;;;;;;;5069488;28;20639;-82
2023/09/02 03:25:45;;;;;;;2.47;2.37;;;;;;;;;;5076389;28;20191;-82
2023/09/02 03:28:12;;;;;;;2.07;1.97;;;;;;;;;;5070420;28;20273;-83
2023/09/02 03:30:38;;;;;;;2.20;2.10;;;;;;;;;;5054990;28;20590;-83
2023/09/02 03:33:04;;;;;;;2.43;2.23;;;;;;;;;;5052425;28;20206;-82
2023/09/02 03:35:37;;;;;;;2.57;2.37;;;;;;;;;;5075879;28;20187;-83
2023/09/02 03:38:03;;;;;;;2.53;2.33;;;;;;;;;;5078063;28;20168;-83
2023/09/02 03:40:30;;;;;;;1.93;1.83;;;;;;;;;;5074860;28;20600;-82
2023/09/02 03:42:56;;;;;;;2.07;1.97;;;;;;;;;;5079118;28;20169;-82
2023/09/02 03:45:22;;;;;;;2.60;2.00;;;;;;;;;;5083716;28;20247;-83
2023/09/02 03:47:48;;;;;;;1.80;1.70;;;;;;;;;;5074010;28;20517;-84
2023/09/02 03:50:14;;;;;;;2.17;2.07;;;;;;;;;;5074402;28;20205;-84
2023/09/02 03:52:40;;;;;;;2.40;2.20;;;;;;;;;;5074950;28;20188;-84
2023/09/02 03:55:06;;;;;;;2.00;1.90;;;;;;;;;;5054196;28;20172;-80
2023/09/02 03:57:32;;;;;;;2.20;2.10;;;;;;;;;;5074076;28;20179;-80
2023/09/02 03:59:59;;;;;;;2.13;1.87;;;;;;;;;;5082261;28;20168;-79
2023/09/02 04:02:25;;;;;;;2.30;2.20;;;;;;;;;;5060519;28;20675;-80
2023/09/02 04:04:51;;;;;;;1.77;1.67;;;;;;;;;;5079738;28;20608;-79
2023/09/02 04:07:17;;;;;;;2.50;2.40;;;;;;;;;;5078769;28;20237;-80
2023/09/02 04:09:43;;;;;;;2.00;1.77;;;;;;;;;;5076284;28;20208;-81
2023/09/02 04:12:09;;;;;;;2.00;1.90;;;;;;;;;;5078574;28;20194;-81
2023/09/02 04:14:35;;;;;;;2.00;1.90;;;;;;;;;;5078643;28;20199;-80
2023/09/02 04:17:02;;;;;;;1.70;1.60;;;;;;;;;;5073314;28;20176;-79
2023/09/02 04:19:28;;;;;;;2.17;2.07;;;;;;;;;;5077159;28;20169;-79
2023/09/02 04:21:54;;;;;;;1.70;1.60;;;;;;;;;;5070592;28;20176;-83
2023/09/02 04:24:20;;;;;;;2.20;2.10;;;;;;;;;;5072726;28;20184;-80
2023/09/02 04:26:46;;;;;;;1.97;1.87;;;;;;;;;;5072117;28;20187;-80
2023/09/02 04:29:12;;;;;;;2.93;2.73;;;;;;;;;;5074297;28;20204;-80
2023/09/02 04:31:38;;;;;;;2.20;2.10;;;;;;;;;;5073549;28;20184;-82
2023/09/02 04:34:04;;;;;;;2.00;1.90;;;;;;;;;;5073852;28;20188;-81
2023/09/02 04:36:30;;;;;;;1.77;1.67;;;;;;;;;;5057225;28;20173;-85
2023/09/02 04:38:56;;;;;;;1.97;1.87;;;;;;;;;;5075280;28;20187;-86
2023/09/02 04:41:22;;;;;;;2.90;2.70;;;;;;;;;;5057375;28;20184;-85
2023/09/02 04:43:48;;;;;;;1.87;1.77;;;;;;;;;;5076807;28;20200;-84
2023/09/02 04:46:16;;;;;;;2.30;2.20;;;;;;;;;;5074732;28;20208;-86
2023/09/02 04:48:42;;;;;;;1.90;1.80;;;;;;;;;;5076021;28;20195;-87
2023/09/02 04:51:08;;;;;;;2.10;2.00;;;;;;;;;;5051047;28;20178;-86
2023/09/02 04:53:36;;;;;;;2.00;1.90;;;;;;;;;;5077160;28;20169;-86
2023/09/02 04:56:04;;;;;;;2.20;2.10;;;;;;;;;;5073576;28;20180;-86
2023/09/02 04:58:30;;;;;;;2.13;2.03;;;;;;;;;;5058142;28;20180;-85
2023/09/02 05:01:07;;;;;;;2.10;2.00;;;;;;;;;;5073749;28;20196;-86
2023/09/02 05:03:33;;;;;;;2.10;1.90;;;;;;;;;;5077864;28;20201;-87
2023/09/02 05:06:00;;;;;;;2.07;1.97;;;;;;;;;;5072892;28;20237;-82
2023/09/02 05:08:31;;;;;;;2.47;1.90;;;;;;;;;;5076391;28;20176;-84
2023/09/02 05:10:57;;;;;;;2.40;2.10;;;;;;;;;;5074410;28;20205;-82
2023/09/02 05:13:23;;;;;;;1.90;1.80;;;;;;;;;;5067538;28;20908;-81
2023/09/02 05:15:50;;;;;;;1.93;1.83;;;;;;;;;;5063665;28;20180;-81
2023/09/02 05:18:16;;;;;;;2.03;1.93;;;;;;;;;;5074986;28;20275;-81
2023/09/02 05:20:42;;;;;;;1.80;1.70;;;;;;;;;;5071091;28;20180;-81
2023/09/02 05:23:09;;;;;;;1.50;1.40;;;;;;;;;;5065080;28;20192;-81
2023/09/02 05:25:35;;;;;;;1.70;1.60;;;;;;;;;;5073251;28;20581;-84
2023/09/02 05:28:01;;;;;;;1.90;1.80;;;;;;;;;;5073137;28;20260;-82
2023/09/02 05:30:28;;;;;;;1.60;1.50;;;;;;;;;;5072296;28;20216;-82
2023/09/02 05:32:54;;;;;;;1.80;1.70;;;;;;;;;;5074406;28;20173;-82
2023/09/02 05:35:20;;;;;;;1.70;1.60;;;;;;;;;;5056257;28;20168;-80
2023/09/02 05:37:46;;;;;;;1.60;1.50;;;;;;;;;;5078312;28;20769;-80
2023/09/02 05:40:12;;;;;;;1.70;1.60;;;;;;;;;;5074028;28;20693;-81
2023/09/02 05:42:38;;;;;;;1.43;1.33;;;;;;;;;;5075073;28;20196;-82
2023/09/02 05:45:05;;;;;;;1.57;1.47;;;;;;;;;;5076600;28;20177;-81
2023/09/02 05:47:31;;;;;;;1.50;1.40;;;;;;;;;;5072626;28;20226;-80
2023/09/02 05:49:57;;;;;;;1.53;1.43;;;;;;;;;;5073226;28;20199;-82
2023/09/02 05:52:23;;;;;;;1.80;1.70;;;;;;;;;;5057288;28;20285;-82
2023/09/02 05:54:49;;;;;;;1.70;1.60;;;;;;;;;;5074331;28;20167;-82
2023/09/02 05:57:15;;;;;;;1.60;1.50;;;;;;;;;;5072149;28;20184;-82
2023/09/02 05:59:41;;;;;;;1.70;1.60;;;;;;;;;;5072829;28;20200;-81
2023/09/02 06:02:07;;;;;;;1.40;1.30;;;;;;;;;;5055853;28;20191;-82
2023/09/02 06:04:33;;;;;;;1.60;1.50;;;;;;;;;;5075045;28;20188;-82
2023/09/02 06:06:59;;;;;;;1.47;1.40;;;;;;;;;;5074252;28;20278;-82
2023/09/02 06:09:26;;;;;;;2.27;1.50;;;;;;;;;;5087255;28;20530;-82
2023/09/02 06:11:53;;;;;;;1.50;1.40;;;;;;;;;;5074400;28;20210;-82
2023/09/02 06:14:19;;;;;;;1.70;1.60;;;;;;;;;;5074798;28;20179;-81
2023/09/02 06:16:45;;;;;;;1.60;1.50;;;;;;;;;;5068546;28;20186;-87
2023/09/02 06:19:11;;;;;;;1.80;1.70;;;;;;;;;;5051301;28;20212;-85
2023/09/02 06:21:37;;;;;;;1.55;1.45;;;;;;;;;;5074104;28;20429;-85
2023/09/02 06:24:05;;;;;;;2.23;1.70;;;;;;;;;;5074467;28;20174;-85
2023/09/02 06:26:31;;;;;;;1.50;1.40;;;;;;;;;;5073382;28;20640;-85
2023/09/02 06:28:58;;;;;;;1.63;1.53;;;;;;;;;;5073050;28;20247;-85
2023/09/02 06:31:24;;;;;;;1.60;1.50;;;;;;;;;;5073136;28;20181;-86
2023/09/02 06:33:50;;;;;;;1.70;1.60;;;;;;;;;;5075041;28;20618;-87
2023/09/02 06:36:16;;;;;;;1.90;1.80;;;;;;;;;;5074438;28;20638;-85
2023/09/02 06:38:43;;;;;;;1.50;1.40;;;;;;;;;;5073291;28;20590;-86
2023/09/02 06:41:12;;;;;;;1.50;1.40;;;;;;;;;;5072534;28;20190;-85
2023/09/02 06:43:39;;;;;;;1.50;1.40;;;;;;;;;;5072557;28;20188;-86
2023/09/02 06:46:09;;;;;;;1.90;1.80;;;;;;;;;;5073567;28;20165;-85
2023/09/02 06:48:35;;;;;;;1.83;1.73;;;;;;;;;;5072771;28;20169;-86
2023/09/02 06:51:01;;;;;;;1.80;1.70;;;;;;;;;;5073312;28;20197;-85
2023/09/02 06:53:28;;;;;;;1.40;1.30;;;;;;;;;;5072150;28;20258;-85
2023/09/02 06:55:54;;;;;;;1.77;1.67;;;;;;;;;;5073605;28;20187;-81
2023/09/02 06:58:20;;;;;;;1.60;1.50;;;;;;;;;;5072552;28;20173;-81
2023/09/02 07:00:48;;;;;;;1.50;1.40;;;;;;;;;;5071463;28;20189;-80
2023/09/02 07:03:14;;;;;;;1.20;1.20;;;;;;;;;;5073591;28;20192;-81
2023/09/02 07:05:40;;;;;;;1.50;1.40;;;;;;;;;;5075632;28;20519;-83
2023/09/02 07:08:06;;;;;;;2.27;1.67;;;;;;;;;;5076226;28;20305;-81
2023/09/02 07:10:32;;;;;;;1.50;1.40;;;;;;;;;;5073772;28;20205;-80
2023/09/02 07:12:58;;;;;;;1.83;1.73;;;;;;;;;;5073049;28;20169;-82
2023/09/02 07:15:24;;;;;;;2.20;2.10;;;;;;;;;;5071055;28;20196;-84
2023/09/02 07:17:52;;;;;;;2.50;2.30;;;;;;;;;;5076157;28;20534;-83
2023/09/02 07:20:18;;;;;;;2.47;2.27;;;;;;;;;;5071205;28;20460;-86
2023/09/02 07:22:44;;;;;;;2.77;2.57;;;;;;;;;;5074159;28;20203;-84
2023/09/02 07:25:10;;;;;;;2.53;2.33;;;;;;;;;;5075464;28;20180;-85
2023/09/02 07:27:36;;;;;;;2.83;2.63;;;;;;;;;;5053275;28;20169;-87
2023/09/02 07:30:02;;;;;;;3.13;2.17;;;;;;;;;;5074664;28;20317;-81
2023/09/02 07:32:28;;;;;;;5.53;2.77;;;;;;;;;;5075725;28;20692;-81
2023/09/02 07:34:54;;;;;;;2.60;2.40;;;;;;;;;;5069833;28;20241;-82
2023/09/02 07:37:20;;;;;;;5.03;2.63;;;;;;;;;;5069530;28;20668;-82
2023/09/02 07:39:46;;;;;;;3.30;3.00;;;;;;;;;;5075475;28;20192;-81
2023/09/02 07:42:12;;;;;;;3.70;2.30;;;;;;;;;;5074221;28;20176;-82
2023/09/02 07:44:39;;;;;;;4.07;3.13;;;;;;;;;;5072868;28;20254;-82
2023/09/02 07:47:05;;;;;;;4.17;2.73;;;;;;;;;;5073289;28;20505;-82
2023/09/02 07:49:31;;;;;;;3.87;2.40;;;;;;;;;;5071425;28;20227;-84
2023/09/02 07:51:57;;;;;;;16.03;3.53;;;;;;;;;;5073552;28;20635;-82
2023/09/02 07:54:23;;;;;;;2.77;2.30;;;;;;;;;;5074101;28;20224;-82
2023/09/02 07:56:49;;;;;;;2.40;2.20;;;;;;;;;;5074904;28;20654;-83
2023/09/02 07:59:15;;;;;;;2.50;2.17;;;;;;;;;;5055944;28;20313;-82
2023/09/02 08:01:41;;;;;;;2.30;2.20;;;;;;;;;;5072635;28;20189;-82
2023/09/02 08:04:07;;;;;;;2.50;2.30;;;;;;;;;;5073122;28;20271;-82
2023/09/02 08:06:35;;;;;;;5.03;2.60;;;;;;;;;;5072958;28;20228;-82
2023/09/02 08:09:02;;;;;;;3.10;2.40;;;;;;;;;;5073562;28;20296;-80
2023/09/02 08:11:28;;;;;;;2.53;2.33;;;;;;;;;;5072816;28;20640;-80
2023/09/02 08:13:54;;;;;;;3.27;2.87;;;;;;;;;;5072954;28;20184;-82
2023/09/02 08:16:20;;;;;;;209.50;31.53;;;;;;;;;;5069115;28;20306;-80
2023/09/02 08:18:46;;;;;;;442.07;67.37;;;;;;;;;;5074400;28;20620;-81
2023/09/02 08:21:12;;;;;;;161.70;30.00;;;;;;;;;;5071593;28;20184;-80
2023/09/02 08:23:38;;;;;;;49.93;11.17;;;;;;;;;;5071930;28;20164;-83
2023/09/02 08:26:14;;;;;;;38.60;11.07;;;;;;;;;;5050540;28;20207;-81
2023/09/02 08:28:40;;;;;;;11.93;4.47;;;;;;;;;;5073964;28;20295;-82
2023/09/02 08:31:09;;;;;;;6.07;3.27;;;;;;;;;;5055097;28;20192;-81
2023/09/02 08:33:36;;;;;;;6.40;3.00;;;;;;;;;;5069187;28;20184;-83
2023/09/02 08:36:02;;;;;;;3.00;2.70;;;;;;;;;;5073809;28;20176;-84
2023/09/02 08:38:28;;;;;;;3.40;3.10;;;;;;;;;;5070736;28;20177;-84
2023/09/02 08:40:54;;;;;;;5.10;3.40;;;;;;;;;;5070278;28;20436;-84
2023/09/02 08:43:21;;;;;;;3.30;3.00;;;;;;;;;;5074447;28;20164;-84
2023/09/02 08:45:49;;;;;;;3.23;2.93;;;;;;;;;;5072902;28;20242;-84
2023/09/02 08:48:23;;;;;;;3.33;3.00;;;;;;;;;;5074247;28;20248;-85
2023/09/02 08:50:49;;;;;;;3.53;2.90;;;;;;;;;;5073609;28;20257;-85
2023/09/02 08:53:16;;;;;;;2.93;2.63;;;;;;;;;;5070209;28;20274;-85
2023/09/02 08:55:43;;;;;;;3.47;2.67;;;;;;;;;;5073363;28;20252;-85
2023/09/02 08:58:10;;;;;;;3.00;2.80;;;;;;;;;;5073378;28;20177;-85
2023/09/02 09:00:36;;;;;;;2.90;2.70;;;;;;;;;;5073891;28;20173;-84
2023/09/02 09:03:03;;;;;;;3.10;2.80;;;;;;;;;;5071316;28;20184;-84
2023/09/02 09:05:30;;;;;;;2.90;2.70;;;;;;;;;;5070087;28;20177;-85
2023/09/02 09:07:56;;;;;;;2.90;2.40;;;;;;;;;;5071526;28;20269;-85
2023/09/02 09:10:23;;;;;;;2.33;2.20;;;;;;;;;;5069557;28;20200;-86
2023/09/02 09:12:51;;;;;;;2.73;2.33;;;;;;;;;;5072081;28;20234;-85
2023/09/02 09:15:18;;;;;;;3.80;2.50;;;;;;;;;;5072013;28;20185;-87
2023/09/02 09:17:44;;;;;;;2.70;2.50;;;;;;;;;;5054131;28;20240;-86
2023/09/02 09:20:11;;;;;;;3.57;2.47;;;;;;;;;;5076162;28;20256;-85
2023/09/02 09:22:38;;;;;;;4.03;2.70;;;;;;;;;;5074801;28;20186;-85
2023/09/02 09:25:05;;;;;;;2.57;2.37;;;;;;;;;;5077434;28;20181;-84
2023/09/02 09:27:31;;;;;;;3.93;2.10;;;;;;;;;;5073099;28;20185;-84
2023/09/02 09:29:57;;;;;;;2.23;2.03;;;;;;;;;;5076357;28;20206;-85
2023/09/02 09:32:23;;;;;;;2.20;1.83;;;;;;;;;;5055151;28;20169;-85
2023/09/02 09:34:50;;;;;;;1.93;1.83;;;;;;;;;;5073444;28;20175;-85
2023/09/02 09:37:16;;;;;;;4.20;2.70;;;;;;;;;;5075311;28;20247;-85
2023/09/02 09:39:46;;;;;;;8.33;3.27;;;;;;;;;;5077435;28;20220;-85
2023/09/02 09:42:14;;;;;;;2.50;1.73;;;;;;;;;;5076401;28;20186;-85
2023/09/02 09:44:57;;;;;;;6.20;2.37;;;;;;;;;;5076677;28;20605;-83
2023/09/02 09:47:23;;;;;;;2.80;2.20;;;;;;;;;;5069812;28;20188;-81
2023/09/02 09:49:50;;;;;;;2.20;2.00;;;;;;;;;;5073294;28;20679;-83
2023/09/02 09:52:17;;;;;;;2.40;2.20;;;;;;;;;;5070342;28;20611;-80
2023/09/02 09:54:51;;;;;;;3.17;2.20;;;;;;;;;;5081489;28;20206;-80
2023/09/02 09:57:17;;;;;;;2.50;2.30;;;;;;;;;;5073773;28;20618;-81
2023/09/02 09:59:52;;;;;;;3.83;2.20;;;;;;;;;;5072656;28;20500;-80
2023/09/02 10:02:20;;;;;;;2.60;2.23;;;;;;;;;;5069687;28;20190;-80
2023/09/02 10:04:53;;;;;;;3.57;2.03;;;;;;;;;;5076008;28;20596;-81
2023/09/02 10:07:23;;;;;;;3.17;2.00;;;;;;;;;;5069683;28;20254;-82
2023/09/02 10:09:50;;;;;;;2.40;2.20;;;;;;;;;;5070123;28;20656;-81
2023/09/02 10:12:16;;;;;;;2.23;2.03;;;;;;;;;;5080053;28;20201;-81
2023/09/02 10:14:43;;;;;;;3.00;2.60;;;;;;;;;;5080204;28;20181;-81
2023/09/02 10:17:10;;;;;;;2.67;2.47;;;;;;;;;;5072745;28;20185;-79
2023/09/02 10:19:36;;;;;;;2.90;2.70;;;;;;;;;;5076190;28;20222;-79
2023/09/02 10:22:03;;;;;;;2.37;2.17;;;;;;;;;;5075399;28;20177;-85
2023/09/02 10:24:31;;;;;;;2.47;2.27;;;;;;;;;;5077014;28;20232;-89
2023/09/02 10:26:58;;;;;;;2.33;2.13;;;;;;;;;;5079344;28;20171;-90
2023/09/02 10:29:27;;;;;;;2.30;2.10;;;;;;;;;;5082082;28;20311;-84
2023/09/02 10:31:55;;;;;;;2.30;2.10;;;;;;;;;;5074013;28;20180;-86
2023/09/02 10:34:32;;;;;;;2.55;2.08;;;;;;;;;;5075819;28;20490;-83
2023/09/02 10:36:58;;;;;;;5.07;2.60;;;;;;;;;;5074266;28;20168;-82
2023/09/02 10:39:27;;;;;;;4.13;3.00;;;;;;;;;;5068767;28;20251;-82
2023/09/02 10:41:55;;;;;;;4.30;2.70;;;;;;;;;;5074395;28;20180;-81
2023/09/02 10:44:22;;;;;;;2.20;2.00;;;;;;;;;;5070497;28;20612;-82
2023/09/02 10:46:48;;;;;;;2.23;2.13;;;;;;;;;;5067364;28;20211;-80
2023/09/02 10:49:14;;;;;;;2.37;2.17;;;;;;;;;;5072357;28;20241;-81
2023/09/02 10:51:41;;;;;;;2.67;2.30;;;;;;;;;;5070957;28;20177;-82
2023/09/02 10:54:07;;;;;;;2.90;2.30;;;;;;;;;;5071802;28;20602;-83
2023/09/02 10:56:34;;;;;;;3.30;2.57;;;;;;;;;;5073686;28;20640;-82
2023/09/02 10:59:01;;;;;;;5.23;2.70;;;;;;;;;;5074798;28;20532;-83
2023/09/02 11:01:42;;;;;;;5.37;2.27;;;;;;;;;;5073823;28;20184;-85
2023/09/02 11:04:08;;;;;;;6.10;2.23;;;;;;;;;;5076129;28;20684;-84
2023/09/02 11:06:34;;;;;;;4.10;2.60;;;;;;;;;;5078100;28;20327;-82
2023/09/02 11:09:00;;;;;;;5.00;2.70;;;;;;;;;;5078917;28;20211;-81
2023/09/02 11:11:46;;;;;;;3.00;2.73;;;;;;;;;;5071792;28;20192;-81
2023/09/02 11:14:12;;;;;;;10.00;3.50;;;;;;;;;;5073268;28;20190;-82
2023/09/02 11:16:38;;;;;;;2.30;2.10;;;;;;;;;;5046601;28;20563;-79
2023/09/02 11:19:08;;;;;;;2.70;2.50;;;;;;;;;;5072475;28;20188;-80
2023/09/02 11:21:42;;;;;;;3.57;2.20;;;;;;;;;;5068547;28;20191;-80
2023/09/02 11:24:18;;;;;;;3.00;2.50;;;;;;;;;;5069150;28;20187;-82
2023/09/02 11:26:57;;;;;;;3.00;2.60;;;;;;;;;;5069881;28;20171;-83
2023/09/02 11:29:24;;;;;;;4.17;2.63;;;;;;;;;;5071438;28;20703;-82
2023/09/02 11:32:00;;;;;;;4.27;3.03;;;;;;;;;;5070738;28;20215;-82
2023/09/02 11:34:27;;;;;;;4.43;3.57;;;;;;;;;;5061859;28;20320;-82
2023/09/02 11:36:56;;;;;;;5.87;3.60;;;;;;;;;;5069788;28;20181;-81
2023/09/02 11:39:26;;;;;;;4.67;3.80;;;;;;;;;;5069766;28;20203;-79
2023/09/02 11:42:08;;;;;;;5.17;4.17;;;;;;;;;;5070095;28;20177;-81
2023/09/02 11:44:34;;;;;;;7.63;4.50;;;;;;;;;;5073111;28;20176;-79
2023/09/02 11:47:01;;;;;;;10.27;6.83;;;;;;;;;;5078120;28;20643;-79
2023/09/02 11:49:27;;;;;;;10.70;8.50;;;;;;;;;;5071247;28;20236;-79
2023/09/02 11:51:53;;;;;;;10.70;8.00;;;;;;;;;;5076264;28;20185;-78
2023/09/02 11:54:19;;;;;;;10.67;6.97;;;;;;;;;;5071096;28;20189;-80
2023/09/02 11:56:58;;;;;;;12.07;9.20;;;;;;;;;;5053428;28;20598;-79
2023/09/02 11:59:24;;;;;;;15.30;12.20;;;;;;;;;;5076073;28;20179;-79
2023/09/02 12:02:10;;;;;;;14.87;10.67;;;;;;;;;;5074345;28;20188;-78
2023/09/02 12:04:36;;;;;;;13.43;11.13;;;;;;;;;;5069988;28;20176;-78
2023/09/02 12:07:03;;;;;;;11.23;8.73;;;;;;;;;;5083586;28;20331;-80
2023/09/02 12:09:29;;;;;;;11.20;9.27;;;;;;;;;;5072674;28;20228;-81
2023/09/02 12:11:56;;;;;;;13.30;9.87;;;;;;;;;;5073429;28;20173;-82
2023/09/02 12:14:22;;;;;;;14.47;10.50;;;;;;;;;;5077428;28;20187;-81
2023/09/02 12:16:48;;;;;;;12.43;9.53;;;;;;;;;;5076861;28;20665;-82
2023/09/02 12:19:14;;;;;;;12.00;9.20;;;;;;;;;;5054802;28;20192;-82
2023/09/02 12:21:40;;;;;;;11.03;8.43;;;;;;;;;;5075696;28;20219;-81
2023/09/02 12:24:06;;;;;;;10.43;8.07;;;;;;;;;;5057037;28;20177;-82
2023/09/02 12:26:32;;;;;;;9.67;8.10;;;;;;;;;;5073239;28;20185;-82
2023/09/02 12:28:59;;;;;;;13.53;7.40;;;;;;;;;;5076286;28;20237;-83
2023/09/02 12:31:26;;;;;;;9.47;7.57;;;;;;;;;;5070382;28;20612;-82
2023/09/02 12:33:52;;;;;;;8.17;6.30;;;;;;;;;;5071486;28;20254;-81
2023/09/02 12:36:18;;;;;;;9.87;6.90;;;;;;;;;;5074749;28;20329;-83
2023/09/02 12:38:51;;;;;;;8.83;6.87;;;;;;;;;;5071916;28;20651;-81
2023/09/02 12:41:17;;;;;;;10.63;6.40;;;;;;;;;;5070883;28;20243;-82
2023/09/02 12:43:43;;;;;;;7.33;5.93;;;;;;;;;;5074853;28;20211;-83
2023/09/02 12:46:09;;;;;;;10.07;4.90;;;;;;;;;;5070810;28;20215;-82
2023/09/02 12:48:35;;;;;;;4.43;4.00;;;;;;;;;;5072533;28;20189;-82
2023/09/02 12:51:01;;;;;;;7.27;3.97;;;;;;;;;;5072993;28;20307;-81
2023/09/02 12:53:27;;;;;;;4.33;3.87;;;;;;;;;;5069042;28;20541;-80
2023/09/02 12:55:55;;;;;;;4.40;3.67;;;;;;;;;;5068700;28;20652;-81
2023/09/02 12:58:21;;;;;;;5.37;3.90;;;;;;;;;;5068596;28;20180;-81
2023/09/02 13:00:47;;;;;;;4.63;3.67;;;;;;;;;;5069914;28;20562;-85
2023/09/02 13:03:13;;;;;;;3.60;2.87;;;;;;;;;;5067191;28;20402;-80
2023/09/02 13:05:39;;;;;;;3.93;3.23;;;;;;;;;;5066119;28;20238;-81
2023/09/02 13:08:06;;;;;;;3.00;2.70;;;;;;;;;;5049671;28;20180;-81
2023/09/02 13:10:32;;;;;;;3.90;3.47;;;;;;;;;;5072116;28;20207;-81
2023/09/02 13:12:58;;;;;;;5.60;3.90;;;;;;;;;;5072957;28;20180;-83
2023/09/02 13:15:26;;;;;;;4.10;3.80;;;;;;;;;;5072988;28;20190;-86
2023/09/02 13:17:52;;;;;;;6.47;3.87;;;;;;;;;;5068023;28;20500;-85
2023/09/02 13:20:19;;;;;;;4.73;3.87;;;;;;;;;;5057764;28;20191;-84
2023/09/02 13:22:47;;;;;;;4.20;3.60;;;;;;;;;;5071817;28;20189;-86
2023/09/02 13:25:15;;;;;;;3.87;3.57;;;;;;;;;;5075500;28;20205;-86
2023/09/02 13:27:41;;;;;;;4.10;3.77;;;;;;;;;;5071636;28;20220;-87
2023/09/02 13:30:09;;;;;;;4.20;3.30;;;;;;;;;;5076505;28;20201;-87
2023/09/02 13:32:35;;;;;;;5.83;3.33;;;;;;;;;;5052121;28;20206;-87
2023/09/02 13:35:08;;;;;;;3.60;3.30;;;;;;;;;;5070338;28;20610;-83
2023/09/02 13:37:35;;;;;;;5.37;3.33;;;;;;;;;;5064657;28;20721;-83
2023/09/02 13:40:05;;;;;;;4.27;3.17;;;;;;;;;;5069406;28;20172;-85
2023/09/02 13:42:32;;;;;;;3.13;2.70;;;;;;;;;;5065217;28;20632;-86
2023/09/02 13:45:16;;;;;;;3.23;2.60;;;;;;;;;;5067540;28;20186;-85
2023/09/02 13:47:49;;;;;;;3.13;2.67;;;;;;;;;;5068324;28;20182;-86
2023/09/02 13:50:16;;;;;;;3.30;2.63;;;;;;;;;;5070514;28;20263;-85
2023/09/02 13:52:43;;;;;;;3.73;2.50;;;;;;;;;;5065654;28;20208;-84
2023/09/02 13:55:10;;;;;;;5.17;3.20;;;;;;;;;;5065830;28;20175;-81
2023/09/02 13:57:36;;;;;;;4.03;3.60;;;;;;;;;;5068008;28;20176;-84
2023/09/02 14:00:07;;;;;;;5.37;4.70;;;;;;;;;;5072956;28;20179;-84
2023/09/02 14:02:36;;;;;;;5.30;4.53;;;;;;;;;;5069143;28;20691;-84
2023/09/02 14:05:04;;;;;;;6.10;5.50;;;;;;;;;;5072175;28;20212;-85
2023/09/02 14:07:31;;;;;;;6.90;6.30;;;;;;;;;;5068261;28;20239;-84
2023/09/02 14:09:57;;;;;;;10.23;9.03;;;;;;;;;;5071209;28;20978;-79
2023/09/02 14:12:23;;;;;;;12.07;10.67;;;;;;;;;;5070469;28;20185;-80
2023/09/02 14:14:49;;;;;;;11.23;10.23;;;;;;;;;;5072942;28;20173;-79
2023/09/02 14:17:15;;;;;;;12.20;11.30;;;;;;;;;;5072693;28;20237;-80
2023/09/02 14:19:41;;;;;;;12.60;11.70;;;;;;;;;;5051330;28;20189;-80
2023/09/02 14:22:07;;;;;;;13.00;11.80;;;;;;;;;;5072143;28;20192;-80
2023/09/02 14:24:33;;;;;;;13.47;12.10;;;;;;;;;;5071725;28;20207;-82
2023/09/02 14:27:10;;;;;;;13.23;11.97;;;;;;;;;;5073556;28;20187;-80
2023/09/02 14:29:36;;;;;;;13.37;12.07;;;;;;;;;;5072060;28;20285;-82
2023/09/02 14:32:03;;;;;;;12.10;10.90;;;;;;;;;;5066048;28;20199;-83
2023/09/02 14:34:29;;;;;;;11.30;10.23;;;;;;;;;;5067050;28;20620;-82
2023/09/02 14:36:55;;;;;;;11.03;10.13;;;;;;;;;;5070831;28;20693;-84
2023/09/02 14:39:21;;;;;;;11.03;10.10;;;;;;;;;;5069753;28;20241;-83
2023/09/02 14:41:50;;;;;;;10.60;9.70;;;;;;;;;;5049058;28;20191;-81